sensor_id;sensor_type;location;lat;lon;timestamp;P1;durP1;ratioP1;P2;durP2;ratioP2
7843;SDS011;3967;48.702;9.326;2022-10-31T00:00:52;7.00;;;4.57;;
7843;SDS011;3967;48.702;9.326;2022-10-31T00:03:19;8.30;;;4.83;;
7843;SDS011;3967;48.702;9.326;2022-10-31T00:05:46;11.93;;;5.80;;
7843;SDS011;3967;48.702;9.326;2022-10-31T00:08:15;9.40;;;5.30;;
7843;SDS011;3967;48.702;9.326;2022-10-31T00:10:43;8.90;;;4.67;;
7843;SDS011;3967;48.702;9.326;2022-10-31T00:13:11;6.57;;;5.07;;
7843;SDS011;3967;48.702;9.326;2022-10-31T00:15:39;10.23;;;5.30;;
7843;SDS011;3967;48.702;9.326;2022-10-31T00:18:07;7.77;;;5.63;;
7843;SDS011;3967;48.702;9.326;2022-10-31T00:20:35;10.67;;;6.47;;
7843;SDS011;3967;48.702;9.326;2022-10-31T00:23:03;8.00;;;5.70;;
7843;SDS011;3967;48.702;9.326;2022-10-31T00:25:35;9.63;;;5.03;;
7843;SDS011;3967;48.702;9.326;2022-10-31T00:28:04;8.20;;;5.23;;
7843;SDS011;3967;48.702;9.326;2022-10-31T00:30:32;10.30;;;5.40;;
7843;SDS011;3967;48.702;9.326;2022-10-31T00:32:59;7.97;;;5.40;;
7843;SDS011;3967;48.702;9.326;2022-10-31T00:35:26;11.40;;;5.50;;
7843;SDS011;3967;48.702;9.326;2022-10-31T00:37:53;10.77;;;5.10;;
7843;SDS011;3967;48.702;9.326;2022-10-31T00:40:19;7.10;;;5.03;;
7843;SDS011;3967;48.702;9.326;2022-10-31T00:42:46;8.70;;;4.80;;
7843;SDS011;3967;48.702;9.326;2022-10-31T00:45:13;10.20;;;4.90;;
7843;SDS011;3967;48.702;9.326;2022-10-31T00:47:39;9.57;;;5.07;;
7843;SDS011;3967;48.702;9.326;2022-10-31T00:50:06;8.30;;;5.07;;
7843;SDS011;3967;48.702;9.326;2022-10-31T00:52:33;8.60;;;5.40;;
7843;SDS011;3967;48.702;9.326;2022-10-31T00:55:00;10.63;;;5.10;;
7843;SDS011;3967;48.702;9.326;2022-10-31T00:57:27;7.90;;;4.60;;
7843;SDS011;3967;48.702;9.326;2022-10-31T00:59:54;10.13;;;4.63;;
7843;SDS011;3967;48.702;9.326;2022-10-31T01:02:20;10.33;;;5.47;;
7843;SDS011;3967;48.702;9.326;2022-10-31T01:04:47;6.77;;;4.60;;
7843;SDS011;3967;48.702;9.326;2022-10-31T01:07:14;10.07;;;5.80;;
7843;SDS011;3967;48.702;9.326;2022-10-31T01:09:41;11.00;;;5.47;;
7843;SDS011;3967;48.702;9.326;2022-10-31T01:12:07;12.70;;;6.17;;
7843;SDS011;3967;48.702;9.326;2022-10-31T01:14:34;11.57;;;5.17;;
7843;SDS011;3967;48.702;9.326;2022-10-31T01:17:01;9.23;;;5.67;;
7843;SDS011;3967;48.702;9.326;2022-10-31T01:19:27;10.40;;;5.07;;
7843;SDS011;3967;48.702;9.326;2022-10-31T01:21:54;9.80;;;4.60;;
7843;SDS011;3967;48.702;9.326;2022-10-31T01:24:21;9.33;;;5.40;;
7843;SDS011;3967;48.702;9.326;2022-10-31T01:26:48;5.83;;;5.03;;
7843;SDS011;3967;48.702;9.326;2022-10-31T01:29:14;11.17;;;5.13;;
7843;SDS011;3967;48.702;9.326;2022-10-31T01:31:41;9.53;;;4.90;;
7843;SDS011;3967;48.702;9.326;2022-10-31T01:34:09;8.83;;;5.07;;
7843;SDS011;3967;48.702;9.326;2022-10-31T01:36:39;9.20;;;5.10;;
7843;SDS011;3967;48.702;9.326;2022-10-31T01:39:11;7.87;;;5.30;;
7843;SDS011;3967;48.702;9.326;2022-10-31T01:41:40;9.27;;;5.80;;
7843;SDS011;3967;48.702;9.326;2022-10-31T01:46:50;9.57;;;5.27;;
7843;SDS011;3967;48.702;9.326;2022-10-31T01:49:24;8.83;;;4.53;;
7843;SDS011;3967;48.702;9.326;2022-10-31T01:52:04;6.37;;;4.93;;
7843;SDS011;3967;48.702;9.326;2022-10-31T01:54:57;8.17;;;4.80;;
7843;SDS011;3967;48.702;9.326;2022-10-31T01:57:26;10.43;;;5.23;;
7843;SDS011;3967;48.702;9.326;2022-10-31T01:59:55;6.40;;;4.30;;
7843;SDS011;3967;48.702;9.326;2022-10-31T02:02:25;10.20;;;4.63;;
7843;SDS011;3967;48.702;9.326;2022-10-31T02:04:55;7.30;;;4.30;;
7843;SDS011;3967;48.702;9.326;2022-10-31T02:07:26;9.53;;;5.23;;
7843;SDS011;3967;48.702;9.326;2022-10-31T02:09:58;9.93;;;5.07;;
7843;SDS011;3967;48.702;9.326;2022-10-31T02:12:28;12.13;;;6.07;;
7843;SDS011;3967;48.702;9.326;2022-10-31T02:14:57;9.77;;;5.67;;
7843;SDS011;3967;48.702;9.326;2022-10-31T02:17:25;6.37;;;4.70;;
7843;SDS011;3967;48.702;9.326;2022-10-31T02:25:21;11.07;;;5.23;;
7843;SDS011;3967;48.702;9.326;2022-10-31T02:33:54;8.80;;;4.80;;
7843;SDS011;3967;48.702;9.326;2022-10-31T02:36:39;8.23;;;4.80;;
7843;SDS011;3967;48.702;9.326;2022-10-31T02:39:22;8.07;;;5.10;;
7843;SDS011;3967;48.702;9.326;2022-10-31T02:44:39;8.67;;;4.97;;
7843;SDS011;3967;48.702;9.326;2022-10-31T02:47:15;11.83;;;5.20;;
7843;SDS011;3967;48.702;9.326;2022-10-31T02:50:07;6.73;;;5.03;;
7843;SDS011;3967;48.702;9.326;2022-10-31T02:52:50;10.43;;;5.13;;
7843;SDS011;3967;48.702;9.326;2022-10-31T02:57:54;6.10;;;4.90;;
7843;SDS011;3967;48.702;9.326;2022-10-31T03:00:25;6.37;;;4.70;;
7843;SDS011;3967;48.702;9.326;2022-10-31T03:08:22;6.03;;;3.90;;
7843;SDS011;3967;48.702;9.326;2022-10-31T03:10:59;7.20;;;4.00;;
7843;SDS011;3967;48.702;9.326;2022-10-31T03:13:51;6.37;;;3.97;;
7843;SDS011;3967;48.702;9.326;2022-10-31T03:16:48;5.53;;;3.97;;
7843;SDS011;3967;48.702;9.326;2022-10-31T03:19:19;6.47;;;4.93;;
7843;SDS011;3967;48.702;9.326;2022-10-31T03:21:53;5.17;;;3.97;;
7843;SDS011;3967;48.702;9.326;2022-10-31T03:24:26;4.87;;;3.60;;
7843;SDS011;3967;48.702;9.326;2022-10-31T03:26:57;5.37;;;4.20;;
7843;SDS011;3967;48.702;9.326;2022-10-31T03:29:26;6.27;;;4.23;;
7843;SDS011;3967;48.702;9.326;2022-10-31T03:32:10;6.03;;;3.37;;
7843;SDS011;3967;48.702;9.326;2022-10-31T03:34:41;5.83;;;3.70;;
7843;SDS011;3967;48.702;9.326;2022-10-31T03:37:10;5.20;;;3.80;;
7843;SDS011;3967;48.702;9.326;2022-10-31T03:39:43;5.30;;;3.70;;
7843;SDS011;3967;48.702;9.326;2022-10-31T03:42:17;6.43;;;3.67;;
7843;SDS011;3967;48.702;9.326;2022-10-31T03:44:49;5.83;;;3.70;;
7843;SDS011;3967;48.702;9.326;2022-10-31T03:47:38;6.73;;;3.70;;
7843;SDS011;3967;48.702;9.326;2022-10-31T03:50:07;8.33;;;4.00;;
7843;SDS011;3967;48.702;9.326;2022-10-31T03:55:12;6.70;;;3.10;;
7843;SDS011;3967;48.702;9.326;2022-10-31T04:00:35;6.23;;;3.63;;
7843;SDS011;3967;48.702;9.326;2022-10-31T04:03:09;3.30;;;3.00;;
7843;SDS011;3967;48.702;9.326;2022-10-31T04:05:45;7.13;;;3.50;;
7843;SDS011;3967;48.702;9.326;2022-10-31T04:08:16;5.57;;;3.73;;
7843;SDS011;3967;48.702;9.326;2022-10-31T04:10:46;7.13;;;4.77;;
7843;SDS011;3967;48.702;9.326;2022-10-31T04:13:17;9.13;;;5.00;;
7843;SDS011;3967;48.702;9.326;2022-10-31T04:15:49;7.57;;;4.30;;
7843;SDS011;3967;48.702;9.326;2022-10-31T04:18:18;4.87;;;3.70;;
7843;SDS011;3967;48.702;9.326;2022-10-31T04:20:44;4.43;;;3.20;;
7843;SDS011;3967;48.702;9.326;2022-10-31T04:23:22;4.27;;;3.17;;
7843;SDS011;3967;48.702;9.326;2022-10-31T04:25:50;6.33;;;3.50;;
7843;SDS011;3967;48.702;9.326;2022-10-31T04:28:17;6.47;;;4.73;;
7843;SDS011;3967;48.702;9.326;2022-10-31T04:30:44;4.70;;;3.83;;
7843;SDS011;3967;48.702;9.326;2022-10-31T04:33:11;4.67;;;3.73;;
7843;SDS011;3967;48.702;9.326;2022-10-31T04:35:37;5.90;;;3.23;;
7843;SDS011;3967;48.702;9.326;2022-10-31T04:38:04;7.10;;;3.23;;
7843;SDS011;3967;48.702;9.326;2022-10-31T04:40:31;4.93;;;2.90;;
7843;SDS011;3967;48.702;9.326;2022-10-31T04:42:57;6.80;;;2.93;;
7843;SDS011;3967;48.702;9.326;2022-10-31T04:45:25;5.63;;;3.00;;
7843;SDS011;3967;48.702;9.326;2022-10-31T04:47:51;5.47;;;3.30;;
7843;SDS011;3967;48.702;9.326;2022-10-31T04:50:18;6.30;;;3.33;;
7843;SDS011;3967;48.702;9.326;2022-10-31T04:52:45;4.97;;;3.27;;
7843;SDS011;3967;48.702;9.326;2022-10-31T04:55:12;6.77;;;4.10;;
7843;SDS011;3967;48.702;9.326;2022-10-31T04:57:40;6.07;;;3.53;;
7843;SDS011;3967;48.702;9.326;2022-10-31T05:00:15;6.73;;;3.43;;
7843;SDS011;3967;48.702;9.326;2022-10-31T05:02:44;3.93;;;2.77;;
7843;SDS011;3967;48.702;9.326;2022-10-31T05:05:11;3.60;;;2.90;;
7843;SDS011;3967;48.702;9.326;2022-10-31T05:07:39;8.20;;;3.47;;
7843;SDS011;3967;48.702;9.326;2022-10-31T05:10:11;3.50;;;3.10;;
7843;SDS011;3967;48.702;9.326;2022-10-31T05:12:46;5.97;;;2.97;;
7843;SDS011;3967;48.702;9.326;2022-10-31T05:15:14;7.27;;;3.70;;
7843;SDS011;3967;48.702;9.326;2022-10-31T05:17:41;6.37;;;4.00;;
7843;SDS011;3967;48.702;9.326;2022-10-31T05:20:09;6.73;;;3.37;;
7843;SDS011;3967;48.702;9.326;2022-10-31T05:22:36;7.10;;;3.50;;
7843;SDS011;3967;48.702;9.326;2022-10-31T05:25:03;6.13;;;4.00;;
7843;SDS011;3967;48.702;9.326;2022-10-31T05:27:30;6.77;;;3.83;;
7843;SDS011;3967;48.702;9.326;2022-10-31T05:29:57;8.17;;;3.60;;
7843;SDS011;3967;48.702;9.326;2022-10-31T05:32:26;6.33;;;4.00;;
7843;SDS011;3967;48.702;9.326;2022-10-31T05:34:53;4.93;;;3.30;;
7843;SDS011;3967;48.702;9.326;2022-10-31T05:37:19;5.63;;;3.20;;
7843;SDS011;3967;48.702;9.326;2022-10-31T05:39:46;4.10;;;3.00;;
7843;SDS011;3967;48.702;9.326;2022-10-31T05:42:12;5.57;;;3.17;;
7843;SDS011;3967;48.702;9.326;2022-10-31T05:44:39;3.90;;;3.03;;
7843;SDS011;3967;48.702;9.326;2022-10-31T05:47:06;4.93;;;2.80;;
7843;SDS011;3967;48.702;9.326;2022-10-31T05:49:32;4.03;;;3.10;;
7843;SDS011;3967;48.702;9.326;2022-10-31T05:51:59;6.63;;;4.00;;
7843;SDS011;3967;48.702;9.326;2022-10-31T05:54:25;4.17;;;3.70;;
7843;SDS011;3967;48.702;9.326;2022-10-31T05:56:52;6.20;;;3.13;;
7843;SDS011;3967;48.702;9.326;2022-10-31T05:59:19;7.03;;;3.50;;
7843;SDS011;3967;48.702;9.326;2022-10-31T06:01:45;5.37;;;3.80;;
7843;SDS011;3967;48.702;9.326;2022-10-31T06:04:13;9.07;;;4.00;;
7843;SDS011;3967;48.702;9.326;2022-10-31T06:06:40;11.97;;;4.07;;
7843;SDS011;3967;48.702;9.326;2022-10-31T06:09:06;6.17;;;4.20;;
7843;SDS011;3967;48.702;9.326;2022-10-31T06:11:33;6.73;;;4.13;;
7843;SDS011;3967;48.702;9.326;2022-10-31T06:14:00;11.67;;;4.30;;
7843;SDS011;3967;48.702;9.326;2022-10-31T06:16:26;7.97;;;4.33;;
7843;SDS011;3967;48.702;9.326;2022-10-31T06:18:53;18.50;;;4.70;;
7843;SDS011;3967;48.702;9.326;2022-10-31T06:21:20;8.53;;;3.93;;
7843;SDS011;3967;48.702;9.326;2022-10-31T06:23:47;4.73;;;3.80;;
7843;SDS011;3967;48.702;9.326;2022-10-31T06:26:13;9.60;;;3.67;;
7843;SDS011;3967;48.702;9.326;2022-10-31T06:28:40;13.13;;;4.90;;
7843;SDS011;3967;48.702;9.326;2022-10-31T06:31:07;6.87;;;4.03;;
7843;SDS011;3967;48.702;9.326;2022-10-31T06:33:33;5.87;;;3.43;;
7843;SDS011;3967;48.702;9.326;2022-10-31T06:36:00;5.43;;;3.50;;
7843;SDS011;3967;48.702;9.326;2022-10-31T06:38:27;5.20;;;3.67;;
7843;SDS011;3967;48.702;9.326;2022-10-31T06:40:54;7.00;;;3.50;;
7843;SDS011;3967;48.702;9.326;2022-10-31T06:43:21;5.57;;;3.67;;
7843;SDS011;3967;48.702;9.326;2022-10-31T06:45:48;6.23;;;3.70;;
7843;SDS011;3967;48.702;9.326;2022-10-31T06:48:15;10.63;;;4.10;;
7843;SDS011;3967;48.702;9.326;2022-10-31T06:50:43;6.43;;;4.60;;
7843;SDS011;3967;48.702;9.326;2022-10-31T06:53:10;7.07;;;4.00;;
7843;SDS011;3967;48.702;9.326;2022-10-31T06:55:38;5.37;;;4.33;;
7843;SDS011;3967;48.702;9.326;2022-10-31T06:58:05;4.63;;;3.37;;
7843;SDS011;3967;48.702;9.326;2022-10-31T07:00:32;5.33;;;4.13;;
7843;SDS011;3967;48.702;9.326;2022-10-31T07:03:00;5.33;;;3.80;;
7843;SDS011;3967;48.702;9.326;2022-10-31T07:05:29;8.53;;;3.67;;
7843;SDS011;3967;48.702;9.326;2022-10-31T07:07:57;4.43;;;3.63;;
7843;SDS011;3967;48.702;9.326;2022-10-31T07:10:26;5.20;;;3.40;;
7843;SDS011;3967;48.702;9.326;2022-10-31T07:12:59;6.17;;;3.60;;
7843;SDS011;3967;48.702;9.326;2022-10-31T07:15:32;9.20;;;3.90;;
7843;SDS011;3967;48.702;9.326;2022-10-31T07:18:00;5.70;;;4.10;;
7843;SDS011;3967;48.702;9.326;2022-10-31T07:20:28;6.20;;;3.90;;
7843;SDS011;3967;48.702;9.326;2022-10-31T07:22:55;5.27;;;3.53;;
7843;SDS011;3967;48.702;9.326;2022-10-31T07:25:23;6.70;;;3.70;;
7843;SDS011;3967;48.702;9.326;2022-10-31T07:27:50;7.73;;;3.60;;
7843;SDS011;3967;48.702;9.326;2022-10-31T07:30:17;7.03;;;3.70;;
7843;SDS011;3967;48.702;9.326;2022-10-31T07:32:45;8.20;;;3.90;;
7843;SDS011;3967;48.702;9.326;2022-10-31T07:35:17;7.07;;;4.13;;
7843;SDS011;3967;48.702;9.326;2022-10-31T07:37:48;7.77;;;4.00;;
7843;SDS011;3967;48.702;9.326;2022-10-31T07:40:15;4.70;;;3.93;;
7843;SDS011;3967;48.702;9.326;2022-10-31T07:42:44;6.90;;;3.60;;
7843;SDS011;3967;48.702;9.326;2022-10-31T07:45:12;9.80;;;4.00;;
7843;SDS011;3967;48.702;9.326;2022-10-31T07:47:42;8.77;;;4.03;;
7843;SDS011;3967;48.702;9.326;2022-10-31T07:50:14;6.57;;;4.20;;
7843;SDS011;3967;48.702;9.326;2022-10-31T07:52:48;4.53;;;3.60;;
7843;SDS011;3967;48.702;9.326;2022-10-31T07:55:23;8.73;;;3.90;;
7843;SDS011;3967;48.702;9.326;2022-10-31T07:57:57;11.07;;;4.07;;
7843;SDS011;3967;48.702;9.326;2022-10-31T08:00:31;5.57;;;3.40;;
7843;SDS011;3967;48.702;9.326;2022-10-31T08:05:28;8.17;;;4.20;;
7843;SDS011;3967;48.702;9.326;2022-10-31T08:07:55;8.43;;;4.00;;
7843;SDS011;3967;48.702;9.326;2022-10-31T08:10:23;7.43;;;4.50;;
7843;SDS011;3967;48.702;9.326;2022-10-31T08:13:00;6.40;;;4.30;;
7843;SDS011;3967;48.702;9.326;2022-10-31T08:15:29;7.83;;;4.17;;
7843;SDS011;3967;48.702;9.326;2022-10-31T08:17:56;6.10;;;4.23;;
7843;SDS011;3967;48.702;9.326;2022-10-31T08:20:23;5.20;;;4.30;;
7843;SDS011;3967;48.702;9.326;2022-10-31T08:22:54;4.40;;;4.00;;
7843;SDS011;3967;48.702;9.326;2022-10-31T08:25:21;6.40;;;4.23;;
7843;SDS011;3967;48.702;9.326;2022-10-31T08:27:53;8.43;;;3.77;;
7843;SDS011;3967;48.702;9.326;2022-10-31T08:30:21;6.43;;;4.63;;
7843;SDS011;3967;48.702;9.326;2022-10-31T08:35:34;5.37;;;3.90;;
7843;SDS011;3967;48.702;9.326;2022-10-31T08:38:01;4.97;;;4.47;;
7843;SDS011;3967;48.702;9.326;2022-10-31T08:40:29;12.13;;;4.43;;
7843;SDS011;3967;48.702;9.326;2022-10-31T08:45:28;4.53;;;3.90;;
7843;SDS011;3967;48.702;9.326;2022-10-31T08:47:59;7.10;;;4.30;;
7843;SDS011;3967;48.702;9.326;2022-10-31T08:50:29;9.27;;;4.50;;
7843;SDS011;3967;48.702;9.326;2022-10-31T08:53:00;5.67;;;4.30;;
7843;SDS011;3967;48.702;9.326;2022-10-31T08:55:36;7.70;;;4.47;;
7843;SDS011;3967;48.702;9.326;2022-10-31T08:58:04;5.53;;;4.03;;
7843;SDS011;3967;48.702;9.326;2022-10-31T09:00:33;7.57;;;4.10;;
7843;SDS011;3967;48.702;9.326;2022-10-31T09:03:01;9.77;;;4.17;;
7843;SDS011;3967;48.702;9.326;2022-10-31T09:05:30;6.13;;;4.43;;
7843;SDS011;3967;48.702;9.326;2022-10-31T09:07:58;7.07;;;4.57;;
7843;SDS011;3967;48.702;9.326;2022-10-31T09:10:26;6.13;;;4.57;;
7843;SDS011;3967;48.702;9.326;2022-10-31T09:12:57;5.70;;;4.40;;
7843;SDS011;3967;48.702;9.326;2022-10-31T09:15:26;8.97;;;4.27;;
7843;SDS011;3967;48.702;9.326;2022-10-31T09:17:53;5.57;;;3.93;;
7843;SDS011;3967;48.702;9.326;2022-10-31T09:20:20;6.67;;;4.00;;
7843;SDS011;3967;48.702;9.326;2022-10-31T09:22:47;7.03;;;4.07;;
7843;SDS011;3967;48.702;9.326;2022-10-31T09:25:20;4.60;;;3.80;;
7843;SDS011;3967;48.702;9.326;2022-10-31T09:27:47;6.03;;;4.83;;
7843;SDS011;3967;48.702;9.326;2022-10-31T09:30:14;8.10;;;4.23;;
7843;SDS011;3967;48.702;9.326;2022-10-31T09:32:41;5.60;;;4.17;;
7843;SDS011;3967;48.702;9.326;2022-10-31T09:35:07;8.20;;;4.37;;
7843;SDS011;3967;48.702;9.326;2022-10-31T09:37:34;6.57;;;4.50;;
7843;SDS011;3967;48.702;9.326;2022-10-31T09:40:01;7.80;;;4.47;;
7843;SDS011;3967;48.702;9.326;2022-10-31T09:45:16;6.53;;;3.30;;
7843;SDS011;3967;48.702;9.326;2022-10-31T09:55:58;8.03;;;4.23;;
7843;SDS011;3967;48.702;9.326;2022-10-31T09:58:27;6.97;;;4.27;;
7843;SDS011;3967;48.702;9.326;2022-10-31T10:01:00;7.20;;;4.40;;
7843;SDS011;3967;48.702;9.326;2022-10-31T10:03:39;7.70;;;4.50;;
7843;SDS011;3967;48.702;9.326;2022-10-31T10:08:48;7.27;;;4.50;;
7843;SDS011;3967;48.702;9.326;2022-10-31T10:19:18;19.20;;;7.37;;
7843;SDS011;3967;48.702;9.326;2022-10-31T10:33:23;5.80;;;4.17;;
7843;SDS011;3967;48.702;9.326;2022-10-31T10:35:59;7.37;;;4.27;;
7843;SDS011;3967;48.702;9.326;2022-10-31T10:38:37;6.23;;;4.20;;
7843;SDS011;3967;48.702;9.326;2022-10-31T10:41:23;8.80;;;4.20;;
7843;SDS011;3967;48.702;9.326;2022-10-31T10:43:59;8.33;;;4.13;;
7843;SDS011;3967;48.702;9.326;2022-10-31T10:46:29;9.83;;;4.50;;
7843;SDS011;3967;48.702;9.326;2022-10-31T10:51:58;8.93;;;4.67;;
7843;SDS011;3967;48.702;9.326;2022-10-31T10:57:51;5.43;;;3.97;;
7843;SDS011;3967;48.702;9.326;2022-10-31T11:00:26;7.13;;;4.03;;
7843;SDS011;3967;48.702;9.326;2022-10-31T11:02:58;8.87;;;4.43;;
7843;SDS011;3967;48.702;9.326;2022-10-31T11:08:11;10.10;;;4.50;;
7843;SDS011;3967;48.702;9.326;2022-10-31T11:10:57;4.90;;;3.57;;
7843;SDS011;3967;48.702;9.326;2022-10-31T11:13:30;6.80;;;4.60;;
7843;SDS011;3967;48.702;9.326;2022-10-31T11:16:08;7.03;;;4.60;;
7843;SDS011;3967;48.702;9.326;2022-10-31T11:18:38;10.77;;;4.83;;
7843;SDS011;3967;48.702;9.326;2022-10-31T11:21:19;8.33;;;3.80;;
7843;SDS011;3967;48.702;9.326;2022-10-31T11:23:49;10.70;;;4.80;;
7843;SDS011;3967;48.702;9.326;2022-10-31T11:26:19;7.03;;;4.30;;
7843;SDS011;3967;48.702;9.326;2022-10-31T11:28:59;6.27;;;4.73;;
7843;SDS011;3967;48.702;9.326;2022-10-31T11:31:25;7.93;;;4.10;;
7843;SDS011;3967;48.702;9.326;2022-10-31T11:33:58;7.60;;;4.50;;
7843;SDS011;3967;48.702;9.326;2022-10-31T11:36:44;8.10;;;4.00;;
7843;SDS011;3967;48.702;9.326;2022-10-31T11:39:21;7.67;;;4.17;;
7843;SDS011;3967;48.702;9.326;2022-10-31T11:41:50;10.90;;;3.67;;
7843;SDS011;3967;48.702;9.326;2022-10-31T11:44:28;8.03;;;4.13;;
7843;SDS011;3967;48.702;9.326;2022-10-31T11:46:57;7.37;;;4.07;;
7843;SDS011;3967;48.702;9.326;2022-10-31T11:49:36;4.87;;;3.77;;
7843;SDS011;3967;48.702;9.326;2022-10-31T11:52:17;6.37;;;4.57;;
7843;SDS011;3967;48.702;9.326;2022-10-31T11:54:58;6.00;;;3.73;;
7843;SDS011;3967;48.702;9.326;2022-10-31T11:59:56;7.17;;;4.00;;
7843;SDS011;3967;48.702;9.326;2022-10-31T12:02:24;7.00;;;3.50;;
7843;SDS011;3967;48.702;9.326;2022-10-31T12:07:30;5.57;;;3.33;;
7843;SDS011;3967;48.702;9.326;2022-10-31T12:09:57;10.23;;;4.07;;
7843;SDS011;3967;48.702;9.326;2022-10-31T12:12:47;7.07;;;4.10;;
7843;SDS011;3967;48.702;9.326;2022-10-31T12:15:33;7.17;;;3.73;;
7843;SDS011;3967;48.702;9.326;2022-10-31T12:26:30;5.17;;;3.30;;
7843;SDS011;3967;48.702;9.326;2022-10-31T12:31:53;7.70;;;4.17;;
7843;SDS011;3967;48.702;9.326;2022-10-31T12:34:27;7.23;;;3.33;;
7843;SDS011;3967;48.702;9.326;2022-10-31T12:48:19;9.13;;;5.27;;
7843;SDS011;3967;48.702;9.326;2022-10-31T12:53:56;6.43;;;3.70;;
7843;SDS011;3967;48.702;9.326;2022-10-31T13:01:59;5.97;;;2.93;;
7843;SDS011;3967;48.702;9.326;2022-10-31T13:07:15;5.10;;;3.03;;
7843;SDS011;3967;48.702;9.326;2022-10-31T13:12:27;5.90;;;3.80;;
7843;SDS011;3967;48.702;9.326;2022-10-31T13:15:16;6.93;;;2.90;;
7843;SDS011;3967;48.702;9.326;2022-10-31T13:17:47;4.97;;;2.93;;
7843;SDS011;3967;48.702;9.326;2022-10-31T13:23:03;5.20;;;2.53;;
7843;SDS011;3967;48.702;9.326;2022-10-31T13:26:06;4.77;;;2.60;;
7843;SDS011;3967;48.702;9.326;2022-10-31T13:29:05;6.77;;;2.97;;
7843;SDS011;3967;48.702;9.326;2022-10-31T13:31:41;6.03;;;3.50;;
7843;SDS011;3967;48.702;9.326;2022-10-31T13:34:10;5.50;;;2.97;;
7843;SDS011;3967;48.702;9.326;2022-10-31T13:45:19;8.17;;;4.03;;
7843;SDS011;3967;48.702;9.326;2022-10-31T13:48:17;4.77;;;3.27;;
7843;SDS011;3967;48.702;9.326;2022-10-31T13:50:59;6.07;;;3.30;;
7843;SDS011;3967;48.702;9.326;2022-10-31T13:56:30;7.47;;;3.03;;
7843;SDS011;3967;48.702;9.326;2022-10-31T13:59:15;4.17;;;3.20;;
7843;SDS011;3967;48.702;9.326;2022-10-31T14:01:56;7.67;;;4.37;;
7843;SDS011;3967;48.702;9.326;2022-10-31T14:04:28;7.97;;;3.63;;
7843;SDS011;3967;48.702;9.326;2022-10-31T14:07:12;9.57;;;3.70;;
7843;SDS011;3967;48.702;9.326;2022-10-31T14:14:58;9.73;;;3.60;;
7843;SDS011;3967;48.702;9.326;2022-10-31T14:17:50;6.37;;;3.20;;
7843;SDS011;3967;48.702;9.326;2022-10-31T14:22:44;6.80;;;3.13;;
7843;SDS011;3967;48.702;9.326;2022-10-31T14:25:28;8.67;;;3.50;;
7843;SDS011;3967;48.702;9.326;2022-10-31T14:28:03;6.00;;;3.07;;
7843;SDS011;3967;48.702;9.326;2022-10-31T14:30:54;4.03;;;2.87;;
7843;SDS011;3967;48.702;9.326;2022-10-31T14:33:24;6.87;;;3.30;;
7843;SDS011;3967;48.702;9.326;2022-10-31T14:42:02;5.87;;;4.07;;
7843;SDS011;3967;48.702;9.326;2022-10-31T14:45:12;5.53;;;2.80;;
7843;SDS011;3967;48.702;9.326;2022-10-31T14:53:18;6.50;;;3.63;;
7843;SDS011;3967;48.702;9.326;2022-10-31T14:55:55;9.13;;;3.67;;
7843;SDS011;3967;48.702;9.326;2022-10-31T15:00:58;5.93;;;3.70;;
7843;SDS011;3967;48.702;9.326;2022-10-31T15:06:31;4.67;;;3.10;;
7843;SDS011;3967;48.702;9.326;2022-10-31T15:14:50;4.30;;;3.17;;
7843;SDS011;3967;48.702;9.326;2022-10-31T15:17:17;8.30;;;3.10;;
7843;SDS011;3967;48.702;9.326;2022-10-31T15:19:45;5.83;;;3.23;;
7843;SDS011;3967;48.702;9.326;2022-10-31T15:22:16;6.87;;;3.33;;
7843;SDS011;3967;48.702;9.326;2022-10-31T15:24:45;7.87;;;3.37;;
7843;SDS011;3967;48.702;9.326;2022-10-31T15:27:15;5.47;;;2.80;;
7843;SDS011;3967;48.702;9.326;2022-10-31T15:29:50;4.93;;;3.03;;
7843;SDS011;3967;48.702;9.326;2022-10-31T15:32:23;6.27;;;2.80;;
7843;SDS011;3967;48.702;9.326;2022-10-31T15:34:51;3.47;;;2.73;;
7843;SDS011;3967;48.702;9.326;2022-10-31T15:37:20;4.20;;;3.00;;
7843;SDS011;3967;48.702;9.326;2022-10-31T15:39:48;5.93;;;3.10;;
7843;SDS011;3967;48.702;9.326;2022-10-31T15:42:17;5.33;;;2.83;;
7843;SDS011;3967;48.702;9.326;2022-10-31T15:45:02;6.63;;;3.07;;
7843;SDS011;3967;48.702;9.326;2022-10-31T15:47:31;7.17;;;2.90;;
7843;SDS011;3967;48.702;9.326;2022-10-31T15:49:59;5.10;;;2.80;;
7843;SDS011;3967;48.702;9.326;2022-10-31T15:55:04;6.20;;;3.00;;
7843;SDS011;3967;48.702;9.326;2022-10-31T15:57:46;4.93;;;3.33;;
7843;SDS011;3967;48.702;9.326;2022-10-31T16:00:22;5.70;;;2.93;;
7843;SDS011;3967;48.702;9.326;2022-10-31T16:02:49;7.97;;;3.30;;
7843;SDS011;3967;48.702;9.326;2022-10-31T16:05:17;4.07;;;3.37;;
7843;SDS011;3967;48.702;9.326;2022-10-31T16:07:48;5.03;;;3.30;;
7843;SDS011;3967;48.702;9.326;2022-10-31T16:10:23;7.10;;;3.33;;
7843;SDS011;3967;48.702;9.326;2022-10-31T16:12:51;6.87;;;3.47;;
7843;SDS011;3967;48.702;9.326;2022-10-31T16:15:19;7.53;;;2.80;;
7843;SDS011;3967;48.702;9.326;2022-10-31T16:17:47;8.73;;;3.80;;
7843;SDS011;3967;48.702;9.326;2022-10-31T16:20:25;5.17;;;3.20;;
7843;SDS011;3967;48.702;9.326;2022-10-31T16:22:53;8.30;;;3.27;;
7843;SDS011;3967;48.702;9.326;2022-10-31T16:25:26;4.53;;;3.10;;
7843;SDS011;3967;48.702;9.326;2022-10-31T16:27:58;5.33;;;3.00;;
7843;SDS011;3967;48.702;9.326;2022-10-31T16:33:46;8.60;;;4.33;;
7843;SDS011;3967;48.702;9.326;2022-10-31T16:39:01;6.17;;;3.60;;
7843;SDS011;3967;48.702;9.326;2022-10-31T16:41:29;5.73;;;3.83;;
7843;SDS011;3967;48.702;9.326;2022-10-31T16:43:55;8.83;;;3.80;;
7843;SDS011;3967;48.702;9.326;2022-10-31T16:46:23;7.07;;;4.10;;
7843;SDS011;3967;48.702;9.326;2022-10-31T16:48:51;10.07;;;5.77;;
7843;SDS011;3967;48.702;9.326;2022-10-31T16:51:19;9.00;;;5.87;;
7843;SDS011;3967;48.702;9.326;2022-10-31T16:53:45;6.13;;;4.87;;
7843;SDS011;3967;48.702;9.326;2022-10-31T16:56:17;9.67;;;5.00;;
7843;SDS011;3967;48.702;9.326;2022-10-31T16:58:47;6.27;;;4.77;;
7843;SDS011;3967;48.702;9.326;2022-10-31T17:01:14;11.27;;;5.50;;
7843;SDS011;3967;48.702;9.326;2022-10-31T17:03:41;8.67;;;5.67;;
7843;SDS011;3967;48.702;9.326;2022-10-31T17:06:10;15.27;;;6.33;;
7843;SDS011;3967;48.702;9.326;2022-10-31T17:08:40;11.10;;;7.03;;
7843;SDS011;3967;48.702;9.326;2022-10-31T17:11:15;10.53;;;6.20;;
7843;SDS011;3967;48.702;9.326;2022-10-31T17:13:44;12.33;;;6.97;;
7843;SDS011;3967;48.702;9.326;2022-10-31T17:16:11;15.43;;;6.50;;
7843;SDS011;3967;48.702;9.326;2022-10-31T17:18:40;12.30;;;6.73;;
7843;SDS011;3967;48.702;9.326;2022-10-31T17:21:09;19.83;;;9.33;;
7843;SDS011;3967;48.702;9.326;2022-10-31T17:23:48;17.33;;;7.87;;
7843;SDS011;3967;48.702;9.326;2022-10-31T17:26:16;12.67;;;7.33;;
7843;SDS011;3967;48.702;9.326;2022-10-31T17:28:43;11.83;;;7.20;;
7843;SDS011;3967;48.702;9.326;2022-10-31T17:31:23;14.87;;;7.23;;
7843;SDS011;3967;48.702;9.326;2022-10-31T17:33:53;11.23;;;6.87;;
7843;SDS011;3967;48.702;9.326;2022-10-31T17:36:27;13.10;;;7.10;;
7843;SDS011;3967;48.702;9.326;2022-10-31T17:38:54;14.87;;;7.87;;
7843;SDS011;3967;48.702;9.326;2022-10-31T17:41:21;14.20;;;7.53;;
7843;SDS011;3967;48.702;9.326;2022-10-31T17:43:47;12.60;;;7.10;;
7843;SDS011;3967;48.702;9.326;2022-10-31T17:46:14;16.13;;;7.70;;
7843;SDS011;3967;48.702;9.326;2022-10-31T17:48:41;9.67;;;6.77;;
7843;SDS011;3967;48.702;9.326;2022-10-31T17:51:07;14.40;;;6.93;;
7843;SDS011;3967;48.702;9.326;2022-10-31T17:53:34;13.33;;;6.57;;
7843;SDS011;3967;48.702;9.326;2022-10-31T17:56:05;9.20;;;5.83;;
7843;SDS011;3967;48.702;9.326;2022-10-31T17:58:33;8.53;;;6.33;;
7843;SDS011;3967;48.702;9.326;2022-10-31T18:01:06;10.10;;;5.87;;
7843;SDS011;3967;48.702;9.326;2022-10-31T18:03:38;12.87;;;7.97;;
7843;SDS011;3967;48.702;9.326;2022-10-31T18:06:05;17.53;;;8.97;;
7843;SDS011;3967;48.702;9.326;2022-10-31T18:08:33;14.80;;;8.20;;
7843;SDS011;3967;48.702;9.326;2022-10-31T18:11:07;13.60;;;8.17;;
7843;SDS011;3967;48.702;9.326;2022-10-31T18:13:37;13.73;;;7.80;;
7843;SDS011;3967;48.702;9.326;2022-10-31T18:16:22;14.17;;;7.00;;
7843;SDS011;3967;48.702;9.326;2022-10-31T18:18:50;7.73;;;5.80;;
7843;SDS011;3967;48.702;9.326;2022-10-31T18:21:18;14.17;;;6.40;;
7843;SDS011;3967;48.702;9.326;2022-10-31T18:23:45;11.23;;;6.03;;
7843;SDS011;3967;48.702;9.326;2022-10-31T18:26:13;9.83;;;5.90;;
7843;SDS011;3967;48.702;9.326;2022-10-31T18:28:39;9.57;;;6.37;;
7843;SDS011;3967;48.702;9.326;2022-10-31T18:31:06;10.47;;;6.70;;